createdAt,value
2018-08-07T00:01:52.024Z,99.90
2018-08-07T00:04:20.589Z,99.90
2018-08-07T00:06:48.846Z,99.90
2018-08-07T00:09:17.131Z,99.90
2018-08-07T00:11:45.304Z,99.90
2018-08-07T00:14:13.532Z,99.90
2018-08-07T00:16:41.725Z,99.90
2018-08-07T00:19:09.928Z,99.90
2018-08-07T00:21:38.084Z,99.90
2018-08-07T00:24:06.353Z,99.90
2018-08-07T00:26:34.564Z,99.90
2018-08-07T00:29:02.839Z,99.90
2018-08-07T00:31:31.094Z,99.90
2018-08-07T00:33:59.306Z,99.90
2018-08-07T00:36:27.553Z,99.90
2018-08-07T00:38:55.764Z,99.90
2018-08-07T00:41:24.361Z,99.90
2018-08-07T00:43:52.629Z,99.90
2018-08-07T00:46:20.989Z,99.90
2018-08-07T00:48:49.175Z,99.90
2018-08-07T00:51:17.341Z,99.90
2018-08-07T00:53:45.510Z,99.90
2018-08-07T00:56:13.667Z,99.90
2018-08-07T00:58:41.872Z,99.90
2018-08-07T01:01:10.137Z,99.90
2018-08-07T01:03:38.337Z,99.90
2018-08-07T01:06:06.548Z,99.90
2018-08-07T01:08:34.817Z,99.90
2018-08-07T01:11:03.045Z,99.90
2018-08-07T01:13:31.297Z,99.90
2018-08-07T01:15:59.508Z,99.90
2018-08-07T01:18:27.734Z,99.90
2018-08-07T01:20:55.953Z,99.90
2018-08-07T01:23:24.240Z,99.90
2018-08-07T01:25:52.434Z,99.90
2018-08-07T01:28:20.642Z,99.90
2018-08-07T01:30:48.841Z,99.90
2018-08-07T01:33:17.049Z,99.90
2018-08-07T01:35:45.281Z,99.90
2018-08-07T01:38:13.620Z,99.90
2018-08-07T01:40:41.830Z,99.90
2018-08-07T01:43:10.023Z,99.90
2018-08-07T01:45:38.402Z,99.90
2018-08-07T01:48:06.657Z,99.90
2018-08-07T01:50:35.419Z,99.90
2018-08-07T01:53:03.627Z,99.90
2018-08-07T01:55:31.817Z,99.90
2018-08-07T01:58:00.018Z,99.90
2018-08-07T02:00:28.272Z,99.90
2018-08-07T02:02:56.533Z,99.90
2018-08-07T02:05:24.639Z,99.90
2018-08-07T02:07:52.813Z,99.90
2018-08-07T02:10:21.782Z,99.90
2018-08-07T02:12:49.937Z,99.90
2018-08-07T02:15:18.091Z,99.90
2018-08-07T02:17:46.251Z,99.90
2018-08-07T02:20:16.630Z,99.90
2018-08-07T02:22:45.280Z,99.90
2018-08-07T02:25:15.784Z,99.90
2018-08-07T02:27:44.557Z,99.90
2018-08-07T02:30:13.578Z,99.90
2018-08-07T02:32:41.778Z,99.90
2018-08-07T02:35:13.892Z,99.90
2018-08-07T02:37:43.075Z,99.90
2018-08-07T02:40:11.905Z,99.90
2018-08-07T02:42:40.076Z,99.90
2018-08-07T02:45:10.840Z,99.90
2018-08-07T02:47:39.678Z,99.90
2018-08-07T02:50:08.199Z,99.90
2018-08-07T02:52:36.767Z,99.90
2018-08-07T02:55:06.106Z,99.90
2018-08-07T02:57:34.259Z,99.90
2018-08-07T03:00:02.434Z,99.90
2018-08-07T03:02:30.626Z,99.90
2018-08-07T03:04:58.771Z,99.90
2018-08-07T03:07:27.849Z,99.90
2018-08-07T03:09:56.018Z,99.90
2018-08-07T03:12:24.232Z,99.90
2018-08-07T03:14:52.436Z,99.90
2018-08-07T03:17:20.601Z,99.90
2018-08-07T03:19:48.789Z,99.90
2018-08-07T03:22:16.962Z,99.90
2018-08-07T03:24:45.130Z,99.90
2018-08-07T03:27:13.330Z,99.90
2018-08-07T03:29:41.504Z,99.90
2018-08-07T03:32:09.676Z,99.90
2018-08-07T03:34:37.922Z,99.90
2018-08-07T03:37:06.212Z,99.90
2018-08-07T03:39:34.415Z,99.90
2018-08-07T03:42:02.647Z,99.90
2018-08-07T03:44:30.835Z,99.90
2018-08-07T03:46:59.032Z,99.90
2018-08-07T03:49:27.274Z,99.90
2018-08-07T03:51:55.475Z,99.90
2018-08-07T03:54:23.657Z,99.90
2018-08-07T03:56:51.812Z,99.90
2018-08-07T03:59:20.009Z,99.90
2018-08-07T04:01:48.172Z,99.90
2018-08-07T04:04:16.339Z,99.90
2018-08-07T04:06:44.961Z,99.90
2018-08-07T04:09:14.702Z,99.90
2018-08-07T04:11:43.161Z,99.90
2018-08-07T04:14:11.721Z,99.90
2018-08-07T04:16:58.207Z,99.90
2018-08-07T04:19:27.501Z,99.90
2018-08-07T04:21:56.642Z,99.90
2018-08-07T04:24:25.179Z,99.90
2018-08-07T04:26:53.340Z,99.90
2018-08-07T04:29:21.722Z,99.90
2018-08-07T04:31:49.872Z,99.90
2018-08-07T04:34:18.106Z,99.90
2018-08-07T04:36:46.246Z,99.90
2018-08-07T04:39:14.558Z,99.90
2018-08-07T04:41:42.816Z,99.90
2018-08-07T04:44:11.020Z,99.90
2018-08-07T04:46:39.178Z,99.90
2018-08-07T04:49:07.357Z,99.90
2018-08-07T04:51:36.142Z,99.90
2018-08-07T04:54:04.352Z,99.90
2018-08-07T04:56:32.516Z,99.90
2018-08-07T04:59:00.666Z,99.90
2018-08-07T05:01:28.846Z,99.90
2018-08-07T05:03:57.040Z,99.90
2018-08-07T05:06:25.180Z,99.90
2018-08-07T05:08:53.351Z,99.90
2018-08-07T05:11:21.545Z,99.90
2018-08-07T05:13:49.716Z,99.90
2018-08-07T05:16:17.872Z,99.90
2018-08-07T05:18:46.019Z,99.90
2018-08-07T05:21:14.211Z,99.90
2018-08-07T05:23:42.372Z,99.90
2018-08-07T05:26:10.558Z,99.90
2018-08-07T05:28:38.782Z,99.90
2018-08-07T05:31:06.903Z,99.90
2018-08-07T05:33:35.083Z,99.90
2018-08-07T05:36:04.465Z,99.90
2018-08-07T05:38:32.619Z,99.90
2018-08-07T05:41:00.802Z,99.90
2018-08-07T05:43:29.003Z,99.90
2018-08-07T05:45:57.182Z,99.90
2018-08-07T05:48:25.377Z,99.90
2018-08-07T05:50:53.890Z,99.90
2018-08-07T05:53:21.724Z,99.90
2018-08-07T05:55:49.948Z,99.90
2018-08-07T05:58:18.148Z,99.90
2018-08-07T06:00:46.336Z,99.90
2018-08-07T06:03:14.495Z,99.90
2018-08-07T06:05:42.693Z,99.90
2018-08-07T06:08:10.900Z,99.90
2018-08-07T06:10:39.205Z,99.90
2018-08-07T06:13:07.427Z,99.90
2018-08-07T06:15:35.663Z,99.90
2018-08-07T06:18:04.383Z,99.90
2018-08-07T06:20:32.590Z,99.90
2018-08-07T06:23:00.901Z,99.90
2018-08-07T06:25:29.235Z,99.90
2018-08-07T06:27:57.399Z,99.90
2018-08-07T06:30:25.678Z,99.90
2018-08-07T06:32:54.092Z,99.90
2018-08-07T06:35:22.355Z,99.90
2018-08-07T06:37:51.703Z,99.90
2018-08-07T06:40:19.971Z,99.90
2018-08-07T06:42:48.208Z,99.90
2018-08-07T06:45:17.646Z,99.90
2018-08-07T06:47:46.523Z,99.90
2018-08-07T06:50:18.098Z,99.90
2018-08-07T06:52:46.866Z,99.90
2018-08-07T06:55:15.178Z,99.90
2018-08-07T06:57:43.439Z,99.90
2018-08-07T07:00:14.213Z,99.90
2018-08-07T07:02:42.524Z,99.90
2018-08-07T07:05:11.199Z,99.90
2018-08-07T07:07:39.527Z,99.90
2018-08-07T07:10:08.894Z,99.90
2018-08-07T07:12:37.652Z,99.90
2018-08-07T07:15:06.868Z,99.90
2018-08-07T07:17:35.074Z,99.90
2018-08-07T07:20:03.271Z,99.90
2018-08-07T07:22:31.562Z,99.70
2018-08-07T07:24:59.763Z,99.60
2018-08-07T07:27:27.961Z,99.00
2018-08-07T07:29:56.157Z,99.50
2018-08-07T07:32:24.441Z,99.90
2018-08-07T07:34:52.632Z,99.50
2018-08-07T07:37:20.807Z,99.20
2018-08-07T07:39:49.115Z,99.60
2018-08-07T07:42:17.292Z,99.90
2018-08-07T07:44:45.533Z,99.90
2018-08-07T07:47:13.715Z,99.90
2018-08-07T07:49:41.869Z,99.90
2018-08-07T07:52:10.340Z,98.30
2018-08-07T07:54:38.524Z,97.00
2018-08-07T07:57:06.909Z,97.00
2018-08-07T07:59:35.098Z,96.00
2018-08-07T08:02:03.274Z,94.20
2018-08-07T08:04:31.454Z,95.30
2018-08-07T08:06:59.772Z,94.60
2018-08-07T08:09:27.913Z,94.70
2018-08-07T08:11:56.105Z,95.60
2018-08-07T08:14:24.243Z,94.70
2018-08-07T08:16:52.400Z,95.30
2018-08-07T08:19:20.564Z,95.30
2018-08-07T08:21:48.758Z,94.80
2018-08-07T08:24:17.017Z,95.00
2018-08-07T08:26:45.174Z,95.00
2018-08-07T08:29:13.507Z,94.50
2018-08-07T08:31:41.562Z,94.70
2018-08-07T08:34:09.767Z,95.40
2018-08-07T08:36:38.010Z,95.50
2018-08-07T08:39:08.762Z,95.50
2018-08-07T08:41:37.054Z,95.20
2018-08-07T08:44:05.325Z,94.50
2018-08-07T08:46:33.510Z,93.90
2018-08-07T08:49:01.705Z,94.20
2018-08-07T08:51:29.963Z,92.90
2018-08-07T08:53:58.292Z,93.70
2018-08-07T08:56:26.492Z,93.90
2018-08-07T08:58:54.723Z,93.60
2018-08-07T09:01:22.976Z,93.60
2018-08-07T09:03:51.174Z,93.30
2018-08-07T09:06:19.607Z,93.20
2018-08-07T09:08:47.811Z,93.30
2018-08-07T09:11:16.179Z,92.30
2018-08-07T09:13:44.325Z,92.50
2018-08-07T09:16:12.499Z,91.90
2018-08-07T09:18:40.725Z,91.90
2018-08-07T09:21:08.947Z,92.10
2018-08-07T09:23:37.179Z,92.50
2018-08-07T09:26:05.521Z,92.50
2018-08-07T09:28:33.634Z,92.90
2018-08-07T09:31:01.815Z,93.30
2018-08-07T09:33:30.106Z,92.20
2018-08-07T09:35:58.316Z,92.50
2018-08-07T09:38:26.478Z,90.70
2018-08-07T09:40:54.643Z,91.10
2018-08-07T09:43:22.835Z,90.70
2018-08-07T09:45:50.991Z,90.10
2018-08-07T09:48:19.157Z,89.10
2018-08-07T09:50:47.325Z,87.50
2018-08-07T09:53:15.647Z,87.90
2018-08-07T09:55:44.703Z,88.10
2018-08-07T09:58:13.110Z,88.30
2018-08-07T10:00:46.421Z,87.10
2018-08-07T10:03:17.765Z,84.30
2018-08-07T10:05:45.974Z,83.80
2018-08-07T10:08:14.124Z,87.20
2018-08-07T10:10:42.303Z,84.20
2018-08-07T10:13:10.501Z,84.70
2018-08-07T10:15:38.647Z,84.50
2018-08-07T10:18:06.887Z,85.10
2018-08-07T10:20:35.071Z,83.70
2018-08-07T10:23:03.314Z,82.10
2018-08-07T10:25:31.597Z,82.70
2018-08-07T10:27:59.808Z,84.20
2018-08-07T10:30:27.990Z,84.20
2018-08-07T10:32:56.138Z,81.70
2018-08-07T10:35:24.316Z,78.40
2018-08-07T10:37:52.507Z,77.30
2018-08-07T10:40:22.035Z,76.80
2018-08-07T10:42:50.216Z,78.50
2018-08-07T10:45:19.695Z,76.70
2018-08-07T10:47:47.965Z,75.90
2018-08-07T10:50:19.118Z,75.50
2018-08-07T10:52:47.710Z,76.60
2018-08-07T10:55:15.913Z,75.60
2018-08-07T10:57:45.844Z,75.70
2018-08-07T11:00:21.348Z,75.00
2018-08-07T11:02:50.261Z,76.00
2018-08-07T11:05:18.816Z,74.30
2018-08-07T11:07:47.020Z,74.50
2018-08-07T11:10:15.505Z,73.90
2018-08-07T11:12:43.713Z,73.40
2018-08-07T11:15:14.273Z,73.60
2018-08-07T11:17:42.486Z,75.00
2018-08-07T11:20:11.736Z,74.50
2018-08-07T11:22:40.475Z,77.60
2018-08-07T11:25:08.704Z,75.20
2018-08-07T11:27:36.887Z,74.70
2018-08-07T11:30:07.769Z,75.50
2018-08-07T11:32:35.966Z,75.50
2018-08-07T11:35:04.548Z,74.90
2018-08-07T11:37:32.761Z,75.30
2018-08-07T11:40:00.979Z,76.30
2018-08-07T11:42:29.143Z,75.40
2018-08-07T11:44:57.442Z,75.40
2018-08-07T11:47:25.707Z,76.70
2018-08-07T11:49:53.908Z,75.50
2018-08-07T11:52:22.059Z,73.90
2018-08-07T11:54:50.305Z,74.20
2018-08-07T11:57:18.533Z,73.60
2018-08-07T11:59:46.749Z,73.90
2018-08-07T12:02:18.289Z,74.40
2018-08-07T12:04:47.368Z,74.30
2018-08-07T12:07:15.577Z,74.00
2018-08-07T12:09:43.757Z,74.40
2018-08-07T12:12:11.932Z,72.20
2018-08-07T12:14:40.149Z,73.90
2018-08-07T12:17:08.408Z,73.00
2018-08-07T12:19:36.601Z,72.20
2018-08-07T12:22:04.867Z,72.40
2018-08-07T12:24:33.031Z,72.00
2018-08-07T12:27:01.210Z,71.70
2018-08-07T12:29:29.989Z,72.40
2018-08-07T12:31:58.551Z,72.80
2018-08-07T12:34:26.751Z,71.30
2018-08-07T12:36:54.940Z,72.90
2018-08-07T12:39:24.030Z,69.90
2018-08-07T12:41:52.464Z,68.90
2018-08-07T12:44:20.670Z,70.20
2018-08-07T12:46:48.910Z,69.60
2018-08-07T12:49:17.362Z,69.50
2018-08-07T12:51:46.132Z,69.00
2018-08-07T12:54:14.340Z,67.60
2018-08-07T12:56:42.518Z,69.70
2018-08-07T12:59:10.928Z,66.30
2018-08-07T13:01:39.108Z,66.00
2018-08-07T13:04:07.542Z,65.80
2018-08-07T13:06:35.718Z,67.00
2018-08-07T13:09:06.221Z,67.30
2018-08-07T13:11:34.432Z,66.50
2018-08-07T13:14:02.651Z,65.80
2018-08-07T13:16:30.892Z,65.40
2018-08-07T13:18:59.272Z,67.70
2018-08-07T13:21:28.355Z,66.00
2018-08-07T13:23:56.621Z,65.20
2018-08-07T13:26:24.863Z,64.90
2018-08-07T13:28:53.011Z,64.80
2018-08-07T13:31:21.257Z,66.10
2018-08-07T13:33:49.442Z,64.50
2018-08-07T13:36:18.774Z,64.40
2018-08-07T13:38:46.955Z,63.20
2018-08-07T13:41:15.163Z,62.10
2018-08-07T13:43:43.348Z,61.60
2018-08-07T13:46:11.698Z,61.70
2018-08-07T13:48:39.859Z,61.00
2018-08-07T13:51:08.058Z,61.70
2018-08-07T13:53:36.261Z,60.20
2018-08-07T13:56:04.527Z,62.20
2018-08-07T13:58:32.725Z,60.70
2018-08-07T14:01:00.962Z,59.70
2018-08-07T14:03:30.146Z,60.00
2018-08-07T14:05:58.342Z,60.10
2018-08-07T14:08:26.506Z,61.30
2018-08-07T14:10:54.703Z,60.20
2018-08-07T14:13:22.935Z,58.00
2018-08-07T14:15:51.194Z,59.30
2018-08-07T14:18:20.162Z,58.50
2018-08-07T14:20:48.432Z,59.70
2018-08-07T14:23:17.319Z,58.50
2018-08-07T14:25:45.656Z,59.70
2018-08-07T14:28:14.441Z,58.60
2018-08-07T14:30:42.626Z,58.70
2018-08-07T14:33:10.848Z,57.90
2018-08-07T14:35:39.063Z,56.30
2018-08-07T14:38:07.342Z,56.20
2018-08-07T14:40:35.565Z,57.60
2018-08-07T14:43:03.759Z,59.80
2018-08-07T14:45:31.993Z,61.50
2018-08-07T14:48:00.270Z,63.90
2018-08-07T14:50:29.533Z,64.40
2018-08-07T14:52:57.850Z,64.90
2018-08-07T14:55:26.297Z,64.70
2018-08-07T14:57:55.697Z,63.60
2018-08-07T15:00:28.998Z,63.60
2018-08-07T15:02:57.230Z,63.50
2018-08-07T15:05:25.465Z,62.60
2018-08-07T15:07:53.668Z,61.50
2018-08-07T15:10:26.137Z,61.40
2018-08-07T15:12:54.345Z,61.80
2018-08-07T15:15:25.640Z,62.20
2018-08-07T15:17:53.936Z,62.60
2018-08-07T15:20:23.689Z,62.90
2018-08-07T15:22:53.233Z,63.30
2018-08-07T15:25:23.023Z,62.60
2018-08-07T15:27:51.255Z,62.00
2018-08-07T15:30:20.699Z,61.90
2018-08-07T15:33:22.947Z,61.60
2018-08-07T15:35:51.150Z,62.20
2018-08-07T15:38:19.467Z,61.70
2018-08-07T15:40:48.189Z,60.00
2018-08-07T15:43:16.481Z,60.00
2018-08-07T15:45:44.894Z,60.60
2018-08-07T15:48:13.709Z,61.60
2018-08-07T15:50:41.930Z,60.40
2018-08-07T15:53:10.140Z,59.70
2018-08-07T15:55:39.002Z,60.00
2018-08-07T15:58:07.654Z,59.80
2018-08-07T16:00:36.485Z,59.10
2018-08-07T16:03:05.838Z,60.70
2018-08-07T16:05:35.037Z,61.20
2018-08-07T16:08:03.284Z,62.30
2018-08-07T16:10:31.511Z,62.40
2018-08-07T16:12:59.704Z,62.70
2018-08-07T16:15:27.999Z,63.30
2018-08-07T16:17:56.270Z,63.70
2018-08-07T16:20:25.051Z,63.50
2018-08-07T16:22:53.423Z,63.40
2018-08-07T16:25:22.025Z,63.80
2018-08-07T16:27:50.874Z,64.30
2018-08-07T16:30:24.091Z,63.50
2018-08-07T16:32:52.315Z,63.30
2018-08-07T16:35:20.585Z,63.50
2018-08-07T16:37:49.228Z,64.00
2018-08-07T16:40:19.125Z,64.20
2018-08-07T16:42:48.048Z,64.60
2018-08-07T16:45:17.927Z,64.90
2018-08-07T16:47:47.338Z,64.50
2018-08-07T16:50:19.979Z,65.20
2018-08-07T16:52:49.017Z,65.70
2018-08-07T16:55:17.500Z,65.40
2018-08-07T16:57:45.739Z,65.60
2018-08-07T17:00:14.148Z,65.60
2018-08-07T17:02:42.470Z,66.10
2018-08-07T17:05:14.827Z,65.40
2018-08-07T17:07:43.548Z,66.10
2018-08-07T17:10:14.295Z,66.20
2018-08-07T17:12:42.488Z,66.40
2018-08-07T17:15:11.381Z,66.70
2018-08-07T17:17:40.779Z,67.40
2018-08-07T17:20:10.295Z,66.80
2018-08-07T17:22:39.958Z,67.00
2018-08-07T17:25:09.165Z,66.70
2018-08-07T17:27:37.439Z,67.20
2018-08-07T17:30:09.219Z,67.50
2018-08-07T17:32:37.574Z,67.20
2018-08-07T17:35:05.786Z,67.60
2018-08-07T17:37:34.016Z,67.60
2018-08-07T17:40:02.520Z,68.00
2018-08-07T17:42:30.718Z,68.10
2018-08-07T17:44:58.974Z,68.40
2018-08-07T17:47:27.159Z,69.30
2018-08-07T17:49:55.319Z,69.00
2018-08-07T17:52:23.555Z,70.10
2018-08-07T17:54:51.722Z,69.90
2018-08-07T17:57:19.894Z,70.20
2018-08-07T17:59:48.023Z,70.50
2018-08-07T18:02:16.242Z,70.80
2018-08-07T18:04:44.500Z,70.80
2018-08-07T18:07:12.631Z,72.00
2018-08-07T18:09:40.818Z,72.20
2018-08-07T18:12:09.054Z,72.00
2018-08-07T18:14:37.235Z,72.20
2018-08-07T18:17:05.595Z,72.50
2018-08-07T18:19:33.908Z,73.00
2018-08-07T18:22:02.099Z,73.40
2018-08-07T18:24:30.270Z,73.80
2018-08-07T18:26:59.046Z,74.60
2018-08-07T18:29:27.418Z,74.70
2018-08-07T18:31:55.786Z,75.10
2018-08-07T18:34:24.039Z,75.60
2018-08-07T18:36:52.226Z,76.00
2018-08-07T18:39:20.498Z,76.30
2018-08-07T18:41:48.700Z,76.60
2018-08-07T18:44:16.896Z,76.90
2018-08-07T18:46:45.100Z,77.60
2018-08-07T18:49:13.324Z,79.30
2018-08-07T18:51:41.524Z,79.30
2018-08-07T18:54:09.876Z,79.10
2018-08-07T18:56:38.082Z,79.20
2018-08-07T18:59:06.823Z,80.50
2018-08-07T19:01:35.134Z,81.60
2018-08-07T19:04:03.379Z,81.60
2018-08-07T19:06:31.586Z,82.50
2018-08-07T19:08:59.824Z,82.60
2018-08-07T19:11:28.036Z,83.50
2018-08-07T19:13:56.210Z,83.30
2018-08-07T19:16:24.431Z,84.80
2018-08-07T19:18:52.639Z,85.20
2018-08-07T19:21:20.902Z,84.70
2018-08-07T19:23:49.146Z,85.10
2018-08-07T19:26:17.372Z,85.90
2018-08-07T19:28:45.629Z,85.90
2018-08-07T19:31:13.820Z,86.60
2018-08-07T19:33:42.089Z,87.20
2018-08-07T19:36:10.417Z,88.60
2018-08-07T19:38:39.305Z,89.70
2018-08-07T19:41:08.316Z,90.30
2018-08-07T19:43:37.664Z,90.50
2018-08-07T19:46:06.097Z,90.80
2018-08-07T19:48:34.360Z,91.50
2018-08-07T19:51:02.721Z,91.70
2018-08-07T19:53:30.945Z,91.90
2018-08-07T19:55:59.431Z,92.50
2018-08-07T19:58:27.610Z,93.20
2018-08-07T20:00:56.051Z,93.70
2018-08-07T20:03:24.439Z,94.10
2018-08-07T20:05:52.668Z,94.50
2018-08-07T20:08:21.032Z,94.80
2018-08-07T20:10:49.382Z,94.80
2018-08-07T20:13:17.556Z,94.90
2018-08-07T20:15:45.763Z,95.00
2018-08-07T20:18:14.192Z,95.20
2018-08-07T20:20:42.379Z,95.30
2018-08-07T20:23:10.579Z,95.40
2018-08-07T20:25:38.806Z,95.40
2018-08-07T20:28:06.990Z,95.40
2018-08-07T20:30:35.163Z,95.40
2018-08-07T20:33:03.412Z,95.50
2018-08-07T20:35:31.610Z,95.50
2018-08-07T20:37:59.798Z,95.60
2018-08-07T20:40:28.412Z,95.80
2018-08-07T20:42:57.791Z,96.00
2018-08-07T20:45:26.107Z,96.40
2018-08-07T20:47:54.381Z,96.60
2018-08-07T20:50:23.783Z,96.90
2018-08-07T20:52:52.514Z,97.10
2018-08-07T20:55:20.842Z,97.10
2018-08-07T20:57:49.050Z,97.30
2018-08-07T21:00:26.540Z,97.50
2018-08-07T21:02:54.731Z,97.90
2018-08-07T21:05:23.925Z,98.30
2018-08-07T21:07:52.195Z,98.40
2018-08-07T21:10:24.947Z,98.70
2018-08-07T21:12:53.265Z,98.80
2018-08-07T21:15:21.495Z,98.90
2018-08-07T21:17:49.885Z,99.00
2018-08-07T21:20:21.507Z,98.20
2018-08-07T21:22:49.895Z,97.00
2018-08-07T21:25:20.190Z,95.40
2018-08-07T21:27:49.940Z,95.20
2018-08-07T21:30:20.244Z,94.70
2018-08-07T21:32:48.451Z,93.40
2018-08-07T21:35:16.684Z,93.80
2018-08-07T21:37:45.307Z,91.40
2018-08-07T21:40:15.939Z,90.90
2018-08-07T21:42:44.458Z,89.60
2018-08-07T21:45:13.321Z,88.00
2018-08-07T21:47:41.514Z,86.30
2018-08-07T21:50:11.610Z,84.00
2018-08-07T21:52:39.927Z,80.80
2018-08-07T21:55:09.939Z,80.40
2018-08-07T21:57:40.234Z,80.40
2018-08-07T22:00:19.018Z,81.10
2018-08-07T22:02:48.236Z,81.40
2018-08-07T22:05:16.409Z,81.10
2018-08-07T22:07:44.722Z,81.70
2018-08-07T22:10:17.870Z,82.60
2018-08-07T22:12:46.271Z,83.50
2018-08-07T22:15:15.314Z,82.20
2018-08-07T22:17:43.585Z,81.80
2018-08-07T22:20:12.118Z,82.30
2018-08-07T22:22:40.294Z,84.20
2018-08-07T22:25:09.308Z,83.30
2018-08-07T22:27:37.537Z,84.80
2018-08-07T22:30:08.778Z,81.50
2018-08-07T22:32:36.948Z,80.80
2018-08-07T22:35:06.091Z,80.00
2018-08-07T22:37:34.380Z,80.40
2018-08-07T22:40:02.827Z,81.50
2018-08-07T22:42:31.003Z,82.50
2018-08-07T22:44:59.600Z,83.00
2018-08-07T22:47:27.767Z,83.20
2018-08-07T22:49:56.020Z,83.70
2018-08-07T22:52:24.195Z,84.10
2018-08-07T22:54:52.361Z,84.40
2018-08-07T22:57:20.584Z,84.50
2018-08-07T22:59:48.809Z,84.80
2018-08-07T23:02:16.948Z,85.70
2018-08-07T23:04:45.131Z,86.20
2018-08-07T23:07:13.316Z,87.20
2018-08-07T23:09:41.525Z,88.80
2018-08-07T23:12:09.700Z,89.30
2018-08-07T23:14:37.913Z,89.20
2018-08-07T23:17:06.279Z,89.30
2018-08-07T23:19:34.623Z,89.70
2018-08-07T23:22:02.901Z,89.80
2018-08-07T23:24:31.081Z,90.20
2018-08-07T23:26:59.235Z,90.40
2018-08-07T23:29:27.418Z,90.70
2018-08-07T23:31:55.596Z,91.00
2018-08-07T23:34:23.781Z,91.10
2018-08-07T23:36:51.950Z,91.30
2018-08-07T23:39:20.202Z,91.50
2018-08-07T23:41:48.388Z,91.60
2018-08-07T23:44:16.591Z,91.70
2018-08-07T23:46:44.803Z,91.90
2018-08-07T23:49:12.998Z,92.10
2018-08-07T23:51:41.162Z,92.00
2018-08-07T23:54:09.350Z,92.00
2018-08-07T23:56:37.534Z,92.10
2018-08-07T23:59:05.711Z,92.10
